Time;durP1;ratioP1;P1;durP2;ratioP2;P2;SDS_P1;SDS_P2;PMS_P1;PMS_P2;Temp;Humidity;BMP_temperature;BMP_pressure;BME280_temperature;BME280_humidity;BME280_pressure;Samples;Min_cycle;Max_cycle;Signal;HPM_P1;HPM_P2
2022/03/19 00:01:05;;;;;;;20.77;11.43;;;7.40;99.90;;;;;;5076673;28;20380;-80
2022/03/19 00:03:49;;;;;;;19.43;11.13;;;7.30;99.90;;;;;;5076529;28;20979;-80
2022/03/19 00:06:38;;;;;;;17.27;9.27;;;7.30;99.90;;;;;;5076728;28;20466;-80
2022/03/19 00:09:22;;;;;;;23.63;10.83;;;7.20;99.90;;;;;;5061451;28;20528;-80
2022/03/19 00:12:08;;;;;;;22.30;10.37;;;7.20;99.90;;;;;;5061465;28;20389;-81
2022/03/19 00:14:52;;;;;;;16.27;10.87;;;7.30;99.90;;;;;;5077052;28;20408;-80
2022/03/19 00:17:37;;;;;;;17.47;12.47;;;7.20;99.90;;;;;;5076962;28;20384;-80
2022/03/19 00:20:22;;;;;;;16.00;9.93;;;7.20;99.90;;;;;;5076472;28;20389;-80
2022/03/19 00:23:07;;;;;;;20.40;10.43;;;7.20;99.90;;;;;;5077292;28;20396;-80
2022/03/19 00:25:51;;;;;;;20.30;11.53;;;7.20;99.90;;;;;;5062266;28;20389;-80
2022/03/19 00:28:36;;;;;;;17.77;10.63;;;7.10;99.90;;;;;;5079706;28;20951;-80
2022/03/19 00:31:21;;;;;;;18.30;11.87;;;7.10;99.90;;;;;;5086676;28;20779;-80
2022/03/19 00:34:05;;;;;;;12.87;10.93;;;7.10;99.90;;;;;;5096823;28;20380;-79
2022/03/19 00:36:50;;;;;;;16.90;10.90;;;7.10;99.90;;;;;;5099154;28;20384;-80
2022/03/19 00:39:34;;;;;;;19.63;12.07;;;7.00;99.90;;;;;;5098708;28;20413;-81
2022/03/19 00:42:19;;;;;;;21.27;12.50;;;7.00;99.90;;;;;;5098471;28;20404;-80
2022/03/19 00:45:04;;;;;;;21.17;11.63;;;6.90;99.90;;;;;;5080435;28;20428;-80
2022/03/19 00:47:49;;;;;;;16.20;10.20;;;6.90;99.90;;;;;;5066788;28;20431;-78
2022/03/19 00:50:33;;;;;;;16.90;9.60;;;6.90;99.90;;;;;;5065413;28;20491;-80
2022/03/19 00:53:19;;;;;;;18.30;9.03;;;6.80;99.90;;;;;;5080302;28;20404;-80
2022/03/19 00:56:04;;;;;;;18.63;12.37;;;6.80;99.90;;;;;;5079848;28;20424;-80
2022/03/19 00:58:49;;;;;;;18.90;11.60;;;6.80;99.90;;;;;;5079950;28;20400;-80
2022/03/19 01:01:34;;;;;;;18.93;9.17;;;6.80;99.90;;;;;;5079643;28;20389;-80
2022/03/19 01:04:19;;;;;;;22.80;10.83;;;6.70;99.90;;;;;;5079280;28;20540;-80
2022/03/19 01:07:04;;;;;;;23.73;10.60;;;6.70;99.90;;;;;;5064502;28;20428;-80
2022/03/19 01:09:48;;;;;;;13.23;10.13;;;6.70;99.90;;;;;;5079364;28;20444;-80
2022/03/19 01:12:32;;;;;;;18.80;11.10;;;6.70;99.90;;;;;;5079672;28;20389;-80
2022/03/19 01:15:17;;;;;;;18.20;10.10;;;6.60;99.90;;;;;;5064143;28;20381;-80
2022/03/19 01:18:02;;;;;;;23.47;12.30;;;6.60;99.90;;;;;;5064406;28;20377;-80
2022/03/19 01:20:46;;;;;;;21.23;10.87;;;6.60;99.90;;;;;;5078861;28;20442;-80
2022/03/19 01:23:31;;;;;;;16.60;10.37;;;6.60;99.90;;;;;;5064470;28;20443;-80
2022/03/19 01:26:15;;;;;;;20.30;10.20;;;6.60;99.90;;;;;;5078939;28;20381;-80
2022/03/19 01:29:00;;;;;;;16.17;9.93;;;6.60;99.90;;;;;;5078566;28;20413;-81
2022/03/19 01:31:44;;;;;;;23.93;10.90;;;6.60;99.90;;;;;;5078395;28;20423;-82
2022/03/19 01:34:28;;;;;;;17.70;10.33;;;6.60;99.90;;;;;;5078799;28;20384;-81
2022/03/19 01:37:13;;;;;;;19.83;11.30;;;6.50;99.90;;;;;;5079192;28;20439;-81
2022/03/19 01:39:58;;;;;;;18.63;11.50;;;6.50;99.90;;;;;;5078747;28;20408;-80
2022/03/19 01:42:45;;;;;;;18.07;13.17;;;6.50;99.90;;;;;;5078633;28;20376;-80
2022/03/19 01:45:30;;;;;;;14.07;8.53;;;6.50;99.90;;;;;;5078566;28;20448;-80
2022/03/19 01:48:15;;;;;;;23.90;9.60;;;6.40;99.90;;;;;;5079172;28;20385;-81
2022/03/19 01:50:59;;;;;;;28.70;12.30;;;6.40;99.90;;;;;;5078974;28;20448;-80
2022/03/19 01:53:44;;;;;;;16.97;11.97;;;6.40;99.90;;;;;;5078980;28;20897;-81
2022/03/19 01:56:28;;;;;;;19.33;12.43;;;6.40;99.90;;;;;;5078402;28;20482;-81
2022/03/19 01:59:13;;;;;;;24.10;12.87;;;6.30;99.90;;;;;;5078893;28;20465;-81
2022/03/19 02:02:01;;;;;;;18.93;12.03;;;6.30;99.90;;;;;;5078969;28;20388;-81
2022/03/19 02:04:45;;;;;;;15.40;10.70;;;6.30;99.90;;;;;;5078724;28;20444;-81
2022/03/19 02:07:31;;;;;;;24.67;10.23;;;6.30;99.90;;;;;;5079274;28;20393;-81
2022/03/19 02:10:17;;;;;;;19.97;11.50;;;6.30;99.90;;;;;;5080829;28;20440;-81
2022/03/19 02:13:02;;;;;;;19.00;10.47;;;6.30;99.90;;;;;;5080698;28;20738;-81
2022/03/19 02:15:46;;;;;;;19.43;10.50;;;6.30;99.90;;;;;;5081448;28;20416;-81
2022/03/19 02:18:33;;;;;;;21.13;11.40;;;6.20;99.90;;;;;;5080956;28;20381;-81
2022/03/19 02:21:18;;;;;;;18.13;11.93;;;6.30;99.90;;;;;;5082328;28;20539;-81
2022/03/19 02:26:58;;;;;;;19.90;11.73;;;6.40;99.90;;;;;;5084370;28;20385;-81
2022/03/19 02:29:42;;;;;;;20.77;11.90;;;6.30;99.90;;;;;;5084271;28;20443;-81
2022/03/19 02:32:27;;;;;;;26.83;10.80;;;6.30;99.90;;;;;;5082391;28;20408;-81
2022/03/19 02:35:12;;;;;;;18.53;11.50;;;6.30;99.90;;;;;;5067807;28;20389;-81
2022/03/19 02:37:56;;;;;;;18.77;11.43;;;6.30;99.90;;;;;;5083193;28;20785;-81
2022/03/19 02:40:41;;;;;;;19.80;11.90;;;6.30;99.90;;;;;;5084064;28;20393;-81
2022/03/19 02:43:26;;;;;;;13.90;9.50;;;6.20;99.90;;;;;;5085713;28;20389;-80
2022/03/19 02:46:10;;;;;;;15.63;10.90;;;6.20;99.90;;;;;;5087085;28;20409;-80
2022/03/19 02:48:55;;;;;;;25.20;10.70;;;6.10;99.90;;;;;;5078499;28;20389;-81
2022/03/19 02:51:42;;;;;;;19.40;11.20;;;6.10;99.90;;;;;;5063359;28;20389;-81
2022/03/19 02:54:29;;;;;;;19.67;11.37;;;6.10;99.90;;;;;;5076928;28;20383;-80
2022/03/19 02:57:13;;;;;;;22.30;12.80;;;6.00;99.90;;;;;;5077745;28;20385;-80
2022/03/19 02:59:59;;;;;;;23.20;12.10;;;6.00;99.90;;;;;;5077415;28;20385;-81
2022/03/19 03:02:43;;;;;;;20.57;11.60;;;6.00;99.90;;;;;;5077611;28;20443;-81
2022/03/19 03:05:28;;;;;;;17.80;10.73;;;6.00;99.90;;;;;;5077290;28;20787;-81
2022/03/19 03:08:15;;;;;;;15.97;9.70;;;6.00;99.90;;;;;;5077296;28;20453;-81
2022/03/19 03:10:59;;;;;;;22.07;9.20;;;6.00;99.90;;;;;;5077778;28;20463;-81
2022/03/19 03:13:44;;;;;;;20.13;10.97;;;6.00;99.90;;;;;;5077455;28;20389;-81
2022/03/19 03:16:30;;;;;;;25.50;11.50;;;5.90;99.90;;;;;;5077678;28;20471;-81
2022/03/19 03:19:16;;;;;;;17.63;10.37;;;6.00;99.90;;;;;;5078563;28;20396;-82
2022/03/19 03:22:01;;;;;;;21.10;10.70;;;6.00;99.90;;;;;;5078103;28;20393;-81
2022/03/19 03:24:45;;;;;;;23.53;11.20;;;5.90;99.90;;;;;;5080197;28;20887;-80
2022/03/19 03:27:30;;;;;;;26.60;13.30;;;6.00;99.90;;;;;;5062116;28;20412;-80
2022/03/19 03:30:15;;;;;;;24.07;12.50;;;6.00;99.90;;;;;;5077267;28;20510;-81
2022/03/19 03:32:59;;;;;;;17.47;10.50;;;6.00;99.90;;;;;;5076658;28;20388;-80
2022/03/19 03:35:44;;;;;;;18.33;10.03;;;5.90;99.90;;;;;;5077381;28;20405;-80
2022/03/19 03:38:29;;;;;;;22.87;12.70;;;5.90;99.90;;;;;;5047787;28;20449;-81
2022/03/19 03:41:14;;;;;;;21.63;10.83;;;5.90;99.90;;;;;;5077025;28;20737;-80
2022/03/19 03:43:59;;;;;;;26.37;11.80;;;5.90;99.90;;;;;;5076111;28;20469;-81
2022/03/19 03:46:44;;;;;;;20.23;9.50;;;5.90;99.90;;;;;;5076872;28;20412;-81
2022/03/19 03:49:28;;;;;;;17.70;9.37;;;5.90;99.90;;;;;;5076500;28;20437;-81
2022/03/19 03:52:13;;;;;;;22.53;11.77;;;5.90;99.90;;;;;;5076635;28;20475;-81
2022/03/19 03:54:58;;;;;;;15.20;10.03;;;5.90;99.90;;;;;;5076261;28;20425;-80
2022/03/19 03:57:43;;;;;;;20.00;10.30;;;5.90;99.90;;;;;;5076246;28;20393;-80
2022/03/19 04:00:28;;;;;;;24.17;11.47;;;5.90;99.90;;;;;;5076950;28;20424;-81
2022/03/19 04:03:12;;;;;;;18.40;11.23;;;5.90;99.90;;;;;;5076601;28;20401;-81
2022/03/19 04:05:58;;;;;;;18.50;10.80;;;5.90;99.90;;;;;;5079288;28;20421;-81
2022/03/19 04:08:42;;;;;;;20.83;9.70;;;5.90;99.90;;;;;;5080935;28;20384;-80
2022/03/19 04:11:27;;;;;;;22.60;12.20;;;5.90;99.90;;;;;;5080804;28;20388;-82
2022/03/19 04:14:11;;;;;;;21.73;10.60;;;5.90;99.90;;;;;;5080914;28;20465;-81
2022/03/19 04:16:56;;;;;;;21.27;10.93;;;5.90;99.90;;;;;;5081515;28;20781;-79
2022/03/19 04:19:40;;;;;;;19.53;11.13;;;5.90;99.90;;;;;;5081815;28;20451;-80
2022/03/19 04:22:37;;;;;;;20.37;11.70;;;5.90;99.90;;;;;;5081210;28;20460;-80
2022/03/19 04:25:23;;;;;;;18.87;12.13;;;5.80;99.90;;;;;;5081251;28;20390;-79
2022/03/19 04:28:11;;;;;;;18.47;11.53;;;5.80;99.90;;;;;;5080727;28;20377;-80
2022/03/19 04:30:56;;;;;;;21.00;12.93;;;5.80;99.90;;;;;;5079638;28;20850;-80
2022/03/19 04:33:41;;;;;;;18.63;11.10;;;5.70;99.90;;;;;;5065204;28;20409;-79
2022/03/19 04:36:35;;;;;;;18.77;10.50;;;5.70;99.90;;;;;;5080230;28;20416;-80
2022/03/19 04:39:20;;;;;;;22.67;12.47;;;5.70;99.90;;;;;;5086553;28;20401;-80
2022/03/19 04:42:06;;;;;;;22.37;11.00;;;5.70;99.90;;;;;;5066922;28;20411;-80
2022/03/19 04:44:52;;;;;;;17.13;11.33;;;5.70;99.90;;;;;;5068097;28;20393;-80
2022/03/19 04:47:38;;;;;;;26.80;12.53;;;5.70;99.90;;;;;;5099444;28;20469;-80
2022/03/19 04:50:23;;;;;;;23.67;10.57;;;5.70;99.90;;;;;;5058330;28;20509;-80
2022/03/19 04:53:08;;;;;;;20.73;10.50;;;5.70;99.90;;;;;;5100172;28;20403;-81
2022/03/19 04:55:53;;;;;;;19.27;11.40;;;5.70;99.90;;;;;;5099416;28;20779;-81
2022/03/19 04:58:37;;;;;;;15.80;11.07;;;5.60;99.90;;;;;;5084845;28;20392;-81
2022/03/19 05:01:29;;;;;;;16.97;10.83;;;5.60;99.90;;;;;;5099620;28;20458;-81
2022/03/19 05:04:14;;;;;;;21.67;12.80;;;5.60;99.90;;;;;;5099586;28;20864;-81
2022/03/19 05:07:00;;;;;;;23.87;12.40;;;5.60;99.90;;;;;;5100564;28;20404;-81
2022/03/19 05:12:43;;;;;;;20.37;14.43;;;5.70;99.90;;;;;;5102433;28;20791;-80
2022/03/19 05:15:28;;;;;;;21.07;12.67;;;5.70;99.90;;;;;;5100325;28;20739;-81
2022/03/19 05:18:12;;;;;;;26.17;13.33;;;5.60;99.90;;;;;;5101803;28;20387;-81
2022/03/19 05:20:57;;;;;;;31.00;14.00;;;5.60;99.90;;;;;;5107552;28;20482;-81
2022/03/19 05:23:44;;;;;;;24.17;12.83;;;5.70;99.90;;;;;;5090898;28;20411;-80
2022/03/19 05:26:29;;;;;;;28.33;13.37;;;5.60;99.90;;;;;;5090557;28;20378;-81
2022/03/19 05:29:13;;;;;;;48.90;17.43;;;5.70;99.90;;;;;;5106271;28;20427;-80
2022/03/19 05:31:58;;;;;;;27.47;14.40;;;5.70;99.90;;;;;;5101337;28;20388;-81
2022/03/19 05:34:43;;;;;;;30.07;16.00;;;5.80;99.90;;;;;;5100292;28;20380;-81
2022/03/19 05:37:27;;;;;;;27.37;16.77;;;5.80;99.90;;;;;;5107857;28;20504;-81
2022/03/19 05:40:12;;;;;;;30.47;17.37;;;5.90;99.90;;;;;;5085549;28;21006;-81
2022/03/19 05:42:56;;;;;;;31.97;16.73;;;5.90;99.90;;;;;;5098998;28;20410;-81
2022/03/19 05:45:41;;;;;;;33.97;15.60;;;6.00;99.90;;;;;;5098709;28;20415;-80
2022/03/19 05:48:25;;;;;;;30.67;19.60;;;6.00;99.90;;;;;;5099040;28;20411;-80
2022/03/19 05:51:09;;;;;;;29.93;17.10;;;6.10;99.90;;;;;;5098970;28;20439;-80
2022/03/19 05:53:54;;;;;;;33.83;19.40;;;6.00;99.90;;;;;;5099636;28;20986;-81
2022/03/19 05:56:38;;;;;;;23.10;15.00;;;6.10;99.90;;;;;;5099559;28;20423;-81
2022/03/19 05:59:23;;;;;;;37.00;16.50;;;6.10;99.90;;;;;;5099118;28;20422;-81
2022/03/19 06:02:08;;;;;;;34.67;16.17;;;6.20;99.90;;;;;;5084356;28;20384;-81
2022/03/19 06:04:53;;;;;;;28.57;17.97;;;6.20;99.90;;;;;;5098497;28;20451;-81
2022/03/19 06:07:37;;;;;;;40.63;19.77;;;6.30;99.90;;;;;;5098840;28;20384;-81
2022/03/19 06:10:21;;;;;;;26.67;18.60;;;6.40;99.90;;;;;;5068840;28;20451;-79
2022/03/19 06:13:06;;;;;;;30.53;15.77;;;6.40;99.90;;;;;;5098956;28;20515;-81
2022/03/19 06:15:50;;;;;;;32.50;17.47;;;6.40;99.90;;;;;;5098943;28;20790;-81
2022/03/19 06:18:35;;;;;;;29.67;17.23;;;6.50;99.90;;;;;;5098555;28;20381;-80
2022/03/19 06:21:22;;;;;;;24.33;16.40;;;6.60;99.90;;;;;;5098530;28;20485;-81
2022/03/19 06:24:09;;;;;;;44.13;16.83;;;6.60;99.90;;;;;;5098040;28;20384;-81
2022/03/19 06:26:54;;;;;;;31.10;16.10;;;6.70;99.90;;;;;;5098346;28;20392;-81
2022/03/19 06:29:38;;;;;;;26.97;15.30;;;6.70;99.90;;;;;;5082845;28;20436;-81
2022/03/19 06:32:24;;;;;;;30.13;17.97;;;6.70;99.90;;;;;;5098179;28;20467;-80
2022/03/19 06:35:10;;;;;;;38.50;20.17;;;6.70;99.90;;;;;;5083181;28;20396;-81
2022/03/19 06:37:54;;;;;;;27.77;19.40;;;6.80;99.90;;;;;;5098706;28;20387;-81
2022/03/19 06:40:39;;;;;;;31.33;16.37;;;6.90;99.90;;;;;;5106039;28;20371;-80
2022/03/19 06:43:24;;;;;;;39.13;19.87;;;6.90;99.90;;;;;;5117979;28;20400;-79
2022/03/19 06:46:09;;;;;;;28.67;16.53;;;7.00;99.90;;;;;;5118123;28;20412;-78
2022/03/19 06:48:53;;;;;;;27.70;17.80;;;7.00;99.90;;;;;;5114771;28;20387;-80
2022/03/19 06:51:40;;;;;;;35.17;21.07;;;7.00;99.90;;;;;;5070276;28;20430;-80
2022/03/19 06:54:25;;;;;;;32.63;20.10;;;7.10;99.90;;;;;;5100551;28;20447;-81
2022/03/19 06:57:09;;;;;;;29.60;19.13;;;7.20;99.90;;;;;;5101194;28;20411;-81
2022/03/19 06:59:54;;;;;;;29.27;17.53;;;7.00;99.90;;;;;;5100765;28;20435;-81
2022/03/19 07:02:49;;;;;;;29.17;17.30;;;6.80;99.90;;;;;;5101205;28;20468;-80
2022/03/19 07:05:33;;;;;;;27.70;17.83;;;7.10;99.90;;;;;;5099774;28;20455;-81
2022/03/19 07:08:17;;;;;;;26.97;16.57;;;7.10;99.90;;;;;;5084071;28;20445;-81
2022/03/19 07:11:03;;;;;;;28.60;16.27;;;7.20;99.90;;;;;;5098882;28;20456;-81
2022/03/19 07:13:48;;;;;;;27.57;15.47;;;7.20;99.90;;;;;;5098877;28;20388;-81
2022/03/19 07:16:32;;;;;;;25.83;15.40;;;7.30;99.90;;;;;;5098963;28;20388;-81
2022/03/19 07:19:17;;;;;;;21.67;13.93;;;7.30;99.90;;;;;;5082868;28;20383;-81
2022/03/19 07:22:01;;;;;;;22.17;15.37;;;7.40;99.90;;;;;;5097505;28;20467;-81
2022/03/19 07:24:46;;;;;;;24.00;15.23;;;7.50;99.90;;;;;;5098042;28;20384;-81
2022/03/19 07:27:30;;;;;;;29.93;16.60;;;7.50;99.90;;;;;;5097951;28;20406;-81
2022/03/19 07:30:14;;;;;;;29.50;15.77;;;7.60;99.90;;;;;;5098213;28;20486;-80
2022/03/19 07:33:02;;;;;;;22.93;14.50;;;7.60;99.90;;;;;;5083044;28;20380;-81
2022/03/19 07:35:48;;;;;;;30.37;17.13;;;7.70;99.90;;;;;;5084644;28;20384;-78
2022/03/19 07:38:34;;;;;;;28.00;14.60;;;7.70;99.90;;;;;;5099030;28;20379;-81
2022/03/19 07:44:23;;;;;;;21.60;14.13;;;7.60;99.90;;;;;;5102332;28;20422;-80
2022/03/19 07:47:08;;;;;;;29.30;14.93;;;7.50;99.90;;;;;;5102282;28;20404;-80
2022/03/19 07:49:53;;;;;;;25.80;13.07;;;7.50;99.90;;;;;;5086692;28;20414;-82
2022/03/19 07:52:43;;;;;;;23.53;13.47;;;7.50;99.90;;;;;;5102180;28;20392;-80
2022/03/19 07:55:28;;;;;;;24.00;12.40;;;7.60;99.90;;;;;;5088847;28;20443;-80
2022/03/19 07:58:13;;;;;;;22.50;14.70;;;7.80;99.90;;;;;;5103155;28;20403;-81
2022/03/19 08:00:57;;;;;;;27.03;15.53;;;8.10;99.90;;;;;;5086761;28;20904;-80
2022/03/19 08:03:44;;;;;;;27.30;14.10;;;8.10;99.90;;;;;;5101806;28;20474;-80
2022/03/19 08:06:28;;;;;;;28.40;14.70;;;8.30;99.90;;;;;;5101984;28;20765;-80
2022/03/19 08:09:14;;;;;;;24.00;13.80;;;8.40;99.90;;;;;;5102150;28;20952;-81
2022/03/19 08:12:00;;;;;;;26.43;14.40;;;8.30;99.90;;;;;;5102216;28;20896;-80
2022/03/19 08:14:45;;;;;;;18.23;11.20;;;8.60;99.90;;;;;;5103661;28;20388;-80
2022/03/19 08:17:30;;;;;;;14.57;9.60;;;8.50;99.90;;;;;;5104606;28;20388;-80
2022/03/19 08:20:15;;;;;;;27.23;10.20;;;8.30;99.90;;;;;;5102371;28;20951;-80
2022/03/19 08:22:59;;;;;;;15.20;8.87;;;8.40;99.90;;;;;;5086295;28;20396;-80
2022/03/19 08:25:44;;;;;;;16.50;9.77;;;8.50;99.90;;;;;;5101903;28;20396;-80
2022/03/19 08:28:28;;;;;;;14.07;8.23;;;8.80;99.90;;;;;;5101315;28;20545;-79
2022/03/19 08:31:12;;;;;;;13.27;8.70;;;8.90;99.90;;;;;;5100834;28;20483;-80
2022/03/19 08:33:57;;;;;;;8.40;5.70;;;9.00;99.90;;;;;;5101820;28;20387;-80
2022/03/19 08:36:41;;;;;;;12.00;7.13;;;9.00;99.90;;;;;;5086345;28;20387;-79
2022/03/19 08:42:33;;;;;;;5.83;4.80;;;9.20;99.90;;;;;;5061088;28;20414;-80
2022/03/19 08:45:20;;;;;;;9.23;6.37;;;9.40;99.90;;;;;;5058644;28;20488;-80
2022/03/19 08:48:05;;;;;;;7.70;5.67;;;9.50;99.90;;;;;;5058515;28;20455;-80
2022/03/19 08:50:50;;;;;;;8.73;4.47;;;9.50;99.90;;;;;;5058824;28;20441;-81
2022/03/19 08:53:35;;;;;;;8.63;5.80;;;9.50;99.90;;;;;;5043513;28;20500;-81
2022/03/19 08:56:20;;;;;;;7.43;5.97;;;9.50;99.90;;;;;;5044850;28;20477;-81
2022/03/19 08:59:05;;;;;;;10.17;6.27;;;10.10;99.90;;;;;;5058814;28;20771;-81
2022/03/19 09:01:52;;;;;;;12.40;5.80;;;10.40;99.90;;;;;;5058417;28;20438;-83
2022/03/19 09:04:36;;;;;;;6.67;5.27;;;10.20;99.90;;;;;;5058703;28;20833;-80
2022/03/19 09:07:21;;;;;;;9.40;5.57;;;10.30;99.90;;;;;;5058293;28;21006;-81
2022/03/19 09:10:07;;;;;;;13.57;6.20;;;9.70;99.90;;;;;;5044237;28;20996;-81
2022/03/19 09:12:51;;;;;;;8.87;6.00;;;9.40;99.90;;;;;;5073764;28;20404;-81
2022/03/19 09:15:36;;;;;;;10.37;5.33;;;9.80;99.90;;;;;;5100262;28;20385;-81
2022/03/19 09:18:21;;;;;;;10.47;6.07;;;10.20;99.90;;;;;;5100948;28;20472;-80
2022/03/19 09:21:06;;;;;;;10.13;5.63;;;10.10;99.90;;;;;;5086198;28;20388;-81
2022/03/19 09:23:51;;;;;;;9.83;5.97;;;10.70;99.90;;;;;;5085947;28;20418;-81
2022/03/19 09:26:36;;;;;;;8.77;6.00;;;10.70;99.90;;;;;;5102282;28;20396;-82
2022/03/19 09:29:20;;;;;;;7.00;5.20;;;10.80;99.90;;;;;;5101046;28;20900;-82
2022/03/19 09:32:05;;;;;;;8.20;4.87;;;10.50;99.90;;;;;;5086063;28;20975;-81
2022/03/19 09:34:51;;;;;;;8.40;5.53;;;10.70;99.90;;;;;;5086205;28;20380;-81
2022/03/19 09:37:35;;;;;;;8.43;5.93;;;11.30;99.90;;;;;;5100788;28;20396;-83
2022/03/19 09:40:20;;;;;;;6.30;4.67;;;11.70;99.90;;;;;;5101510;28;20479;-81
2022/03/19 09:43:07;;;;;;;8.23;5.27;;;11.80;99.90;;;;;;5102660;28;20426;-82
2022/03/19 09:45:53;;;;;;;7.63;4.30;;;11.70;99.90;;;;;;5109985;28;20422;-81
2022/03/19 09:48:38;;;;;;;7.20;4.30;;;12.20;99.90;;;;;;5115223;28;20477;-80
2022/03/19 09:51:27;;;;;;;5.73;4.50;;;12.70;99.90;;;;;;5098505;28;20442;-81
2022/03/19 09:54:12;;;;;;;8.33;5.40;;;12.70;99.90;;;;;;5096805;28;20383;-80
2022/03/19 09:56:57;;;;;;;9.93;5.67;;;11.70;99.90;;;;;;5094198;28;20388;-81
2022/03/19 09:59:42;;;;;;;7.73;5.63;;;12.50;99.90;;;;;;5096954;28;20375;-80
2022/03/19 10:02:26;;;;;;;8.57;4.80;;;13.00;99.90;;;;;;5108428;28;20400;-81
2022/03/19 10:11:15;;;;;;;11.10;7.30;;;13.00;97.80;;;;;;5105682;28;20478;-81
2022/03/19 10:14:05;;;;;;;15.10;6.47;;;12.50;98.40;;;;;;5105278;28;20388;-78
2022/03/19 10:16:51;;;;;;;10.70;5.20;;;12.10;97.90;;;;;;5102693;28;20427;-81
2022/03/19 10:19:49;;;;;;;4.80;3.90;;;11.90;95.30;;;;;;5101609;28;21018;-82
2022/03/19 10:22:34;;;;;;;6.67;3.80;;;11.80;90.30;;;;;;5085525;28;20392;-82
2022/03/19 10:25:20;;;;;;;4.30;3.67;;;11.80;85.90;;;;;;5085142;28;20392;-82
2022/03/19 10:28:08;;;;;;;3.40;2.67;;;12.20;80.50;;;;;;5101762;28;20484;-80
2022/03/19 10:30:53;;;;;;;5.20;3.60;;;12.50;80.10;;;;;;5103446;28;20510;-79
2022/03/19 10:33:37;;;;;;;8.90;4.20;;;13.40;77.80;;;;;;5103091;28;20529;-80
2022/03/19 10:36:29;;;;;;;7.53;3.27;;;13.90;73.50;;;;;;5087197;28;20744;-81
2022/03/19 10:39:25;;;;;;;5.23;3.17;;;13.60;70.10;;;;;;5085796;28;20398;-82
2022/03/19 10:42:14;;;;;;;4.43;2.87;;;12.50;70.40;;;;;;5087251;28;20384;-81
2022/03/19 10:44:59;;;;;;;7.87;3.57;;;12.00;71.20;;;;;;5112189;28;20380;-82
2022/03/19 10:47:45;;;;;;;5.43;3.30;;;12.50;71.60;;;;;;5114355;28;20419;-81
2022/03/19 10:50:30;;;;;;;3.93;3.20;;;13.60;70.90;;;;;;5086936;28;20451;-81
2022/03/19 10:53:16;;;;;;;4.80;3.13;;;12.70;67.70;;;;;;5085443;28;20395;-81
2022/03/19 10:56:03;;;;;;;3.90;3.50;;;13.20;69.80;;;;;;5098653;28;20427;-79
2022/03/19 10:58:48;;;;;;;3.17;2.87;;;13.20;67.50;;;;;;5076687;28;20414;-81
2022/03/19 11:01:36;;;;;;;4.90;3.80;;;13.70;65.60;;;;;;5096140;28;20384;-80
2022/03/19 11:04:22;;;;;;;4.13;2.80;;;13.60;71.50;;;;;;5088428;28;20452;-79
2022/03/19 11:07:09;;;;;;;3.70;3.13;;;13.40;67.00;;;;;;5049896;28;20432;-80
2022/03/19 11:10:01;;;;;;;3.87;3.03;;;14.20;68.10;;;;;;5078606;28;20540;-81
2022/03/19 11:12:50;;;;;;;4.13;3.30;;;13.80;65.00;;;;;;5079247;28;20428;-80
2022/03/19 11:15:35;;;;;;;5.07;3.30;;;13.20;64.50;;;;;;5078146;28;20461;-79
2022/03/19 11:18:21;;;;;;;6.13;3.80;;;12.80;64.60;;;;;;5078177;28;20444;-80
2022/03/19 11:21:08;;;;;;;4.27;2.70;;;13.90;64.40;;;;;;5062982;28;20760;-80
2022/03/19 11:24:02;;;;;;;3.90;3.30;;;14.40;67.10;;;;;;5078224;28;20437;-82
2022/03/19 11:26:48;;;;;;;4.03;3.50;;;15.30;65.70;;;;;;5062480;28;20477;-79
2022/03/19 11:29:33;;;;;;;4.83;3.13;;;13.80;61.70;;;;;;5078111;28;20802;-79
2022/03/19 11:32:23;;;;;;;4.80;3.50;;;13.00;62.50;;;;;;5079031;28;20413;-81
2022/03/19 11:35:09;;;;;;;4.10;3.17;;;14.10;64.70;;;;;;5061947;28;20451;-81
2022/03/19 11:38:04;;;;;;;2.83;2.63;;;14.20;59.70;;;;;;5076197;28;20393;-81
2022/03/19 11:40:54;;;;;;;3.60;3.30;;;14.10;60.50;;;;;;5061933;28;20880;-80
2022/03/19 11:43:39;;;;;;;3.33;3.03;;;15.90;62.70;;;;;;5062481;28;20880;-81
2022/03/19 11:46:24;;;;;;;4.33;3.40;;;15.00;58.70;;;;;;5077711;28;20399;-82
2022/03/19 11:49:08;;;;;;;5.03;4.00;;;14.80;57.60;;;;;;5084407;28;20880;-82
2022/03/19 11:51:53;;;;;;;4.60;2.87;;;14.20;56.80;;;;;;5087498;28;20460;-81
2022/03/19 11:55:08;;;;;;;5.43;3.30;;;14.60;58.10;;;;;;5061819;28;21078;-80
2022/03/19 11:57:57;;;;;;;3.40;3.20;;;14.60;58.70;;;;;;5086202;28;20389;-82
2022/03/19 12:00:42;;;;;;;4.13;3.17;;;14.40;57.20;;;;;;5084966;28;20409;-79
2022/03/19 12:03:27;;;;;;;2.93;2.73;;;15.80;57.10;;;;;;5088083;28;20387;-80
2022/03/19 12:06:32;;;;;;;7.57;4.37;;;16.80;56.10;;;;;;5068519;28;20479;-82
2022/03/19 12:09:16;;;;;;;4.27;3.87;;;17.20;57.10;;;;;;5069562;28;20731;-81
2022/03/19 12:12:24;;;;;;;4.30;3.10;;;15.70;53.40;;;;;;5069834;28;20385;-81
2022/03/19 12:15:45;;;;;;;5.47;4.00;;;15.60;55.60;;;;;;5084056;28;20401;-82
2022/03/19 12:18:43;;;;;;;6.13;3.77;;;15.10;58.40;;;;;;5071270;28;20389;-82
2022/03/19 12:21:34;;;;;;;4.17;3.60;;;15.20;60.20;;;;;;5067972;28;20408;-81
2022/03/19 12:24:32;;;;;;;6.93;3.60;;;17.10;57.40;;;;;;5084278;28;20416;-82
2022/03/19 12:27:18;;;;;;;3.33;3.03;;;15.50;55.30;;;;;;5087506;28;20459;-83
2022/03/19 12:30:04;;;;;;;4.83;3.83;;;16.40;55.00;;;;;;5072330;28;20472;-82
2022/03/19 12:32:54;;;;;;;4.37;3.90;;;16.10;54.20;;;;;;5086803;28;20435;-81
2022/03/19 12:35:43;;;;;;;4.50;3.10;;;15.70;52.70;;;;;;5086396;28;20400;-81
2022/03/19 12:38:32;;;;;;;8.60;3.33;;;14.60;54.50;;;;;;5086219;28;20408;-81
2022/03/19 12:44:25;;;;;;;6.50;4.60;;;14.00;57.40;;;;;;5086577;28;20451;-82
2022/03/19 12:47:28;;;;;;;6.07;5.20;;;14.50;58.10;;;;;;5063868;28;20501;-81
2022/03/19 12:50:19;;;;;;;5.40;2.63;;;13.60;60.20;;;;;;5036117;28;20476;-81
2022/03/19 12:53:04;;;;;;;8.80;4.97;;;12.80;64.10;;;;;;5064574;28;20540;-81
2022/03/19 12:55:49;;;;;;;3.97;3.60;;;12.40;66.10;;;;;;5036738;28;20448;-81
2022/03/19 12:58:39;;;;;;;5.10;4.00;;;12.40;66.00;;;;;;5063848;28;20382;-82
2022/03/19 13:01:27;;;;;;;7.33;4.60;;;11.50;68.10;;;;;;5064947;28;20469;-80
2022/03/19 13:04:20;;;;;;;8.90;3.87;;;10.90;69.70;;;;;;5070351;28;20472;-80
2022/03/19 13:07:05;;;;;;;9.17;5.10;;;10.80;72.50;;;;;;5084036;28;20420;-81
2022/03/19 13:09:50;;;;;;;4.93;3.50;;;10.80;72.80;;;;;;5082979;28;20502;-82
2022/03/19 13:12:35;;;;;;;6.57;4.20;;;9.90;74.20;;;;;;5084398;28;20420;-80
2022/03/19 13:15:20;;;;;;;6.77;4.03;;;10.20;75.70;;;;;;5070030;28;20984;-81
2022/03/19 13:18:05;;;;;;;5.63;3.87;;;10.50;77.90;;;;;;5078282;28;20415;-81
2022/03/19 13:21:00;;;;;;;7.37;4.10;;;10.10;79.00;;;;;;5105613;28;20430;-80
2022/03/19 13:23:45;;;;;;;8.53;4.43;;;9.50;81.10;;;;;;5106044;28;20439;-81
2022/03/19 13:26:32;;;;;;;6.67;4.40;;;9.50;82.00;;;;;;5106093;28;20384;-82
2022/03/19 13:29:37;;;;;;;3.43;3.13;;;9.90;86.40;;;;;;5064120;28;20489;-81
2022/03/19 13:32:22;;;;;;;5.97;3.77;;;9.40;86.80;;;;;;5050995;28;20409;-81
2022/03/19 13:35:07;;;;;;;5.00;3.93;;;9.50;89.00;;;;;;5063504;28;20463;-82
2022/03/19 13:37:51;;;;;;;8.23;3.60;;;9.60;89.60;;;;;;5063306;28;20449;-82
2022/03/19 13:40:37;;;;;;;3.77;3.47;;;9.90;89.00;;;;;;5049838;28;20539;-82
2022/03/19 13:43:35;;;;;;;3.50;1.80;;;10.40;90.00;;;;;;5062059;28;20421;-82
2022/03/19 13:46:22;;;;;;;3.90;3.47;;;9.70;91.90;;;;;;5063411;28;20449;-79
2022/03/19 13:49:16;;;;;;;3.00;2.37;;;9.30;93.30;;;;;;5062822;28;20434;-83
2022/03/19 13:52:01;;;;;;;4.07;3.33;;;9.30;96.60;;;;;;5063788;28;20461;-82
2022/03/19 13:54:46;;;;;;;5.50;2.73;;;9.20;99.90;;;;;;5049723;28;20424;-81
2022/03/19 13:57:33;;;;;;;3.87;2.30;;;8.90;99.90;;;;;;5062345;28;20397;-81
2022/03/19 14:00:26;;;;;;;6.13;3.80;;;8.50;99.90;;;;;;5072987;28;20389;-81
2022/03/19 14:03:14;;;;;;;4.20;3.80;;;8.10;99.90;;;;;;5084813;28;20416;-80
2022/03/19 14:05:59;;;;;;;6.97;3.13;;;7.70;99.90;;;;;;5068612;28;20404;-82
2022/03/19 14:08:47;;;;;;;4.53;3.90;;;7.70;99.90;;;;;;5069140;28;20393;-82
2022/03/19 14:11:39;;;;;;;5.23;4.07;;;7.80;99.90;;;;;;5068948;28;20521;-81
2022/03/19 14:14:24;;;;;;;4.33;3.07;;;7.90;99.90;;;;;;5083797;28;20384;-80
2022/03/19 14:17:08;;;;;;;6.00;3.73;;;7.80;99.90;;;;;;5084797;28;20381;-81
2022/03/19 14:19:54;;;;;;;4.37;3.97;;;8.40;99.90;;;;;;5070917;28;20896;-80
2022/03/19 14:22:38;;;;;;;8.63;5.27;;;8.90;99.90;;;;;;5084462;28;20453;-81
2022/03/19 14:25:23;;;;;;;4.70;4.30;;;8.90;99.90;;;;;;5083715;28;20412;-81
2022/03/19 14:28:10;;;;;;;9.37;6.50;;;8.90;99.90;;;;;;5069420;28;20385;-81
2022/03/19 14:30:56;;;;;;;9.53;7.17;;;9.20;99.90;;;;;;5069352;28;20817;-82
2022/03/19 14:33:40;;;;;;;10.40;7.17;;;10.30;99.90;;;;;;5069477;28;20802;-79
2022/03/19 14:36:26;;;;;;;10.23;6.40;;;11.10;99.90;;;;;;5068955;28;20393;-81
2022/03/19 14:39:11;;;;;;;9.30;7.57;;;11.50;99.90;;;;;;5063570;28;20433;-81
2022/03/19 14:41:59;;;;;;;12.83;8.23;;;9.90;99.90;;;;;;5076210;28;20424;-81